Eye Of The Wind — GWAK — position and weather

sailwx.info

Track history (hours):
 
Tides and Currents Weather Stations Pressure Air Temp Water Temp Dewpoint Dewpoint Depression Visibility Wind Speed Wind Dir Waves Ship Positions

Eye Of The Wind

Last reported at 2019-Aug-21 10:00 UTC. Time now 2019-Aug-22 08:53 UTC.
Position N 59°34' W 001°54'.

Length 33 m; draft 2.8 m.

Type: Sailing vessel. MMSI: 233789000.

Date/timePositionNaut miles runAvg speedWind from/ knotsBaromVisibWave heightAir tempDewpointWater temp
2019-Aug-21 10:00N 59°34' W 001°54'  
2019-Aug-14 06:46N 60°51' E 002°56'2 6.1
2019-Aug-14 06:25N 60°51' E 002°60'3 6.2
2019-Aug-14 05:59N 60°52' E 003°05'3 6.4
2019-Aug-14 05:29N 60°53' E 003°12'3 6.4
2019-Aug-14 05:00N 60°54' E 003°18'3 6.0
2019-Aug-14 04:30N 60°55' E 003°24'3 6.1
2019-Aug-14 04:00N 60°55' E 003°30'3 6.2
2019-Aug-14 03:30N 60°56' E 003°36'3 6.8
2019-Aug-14 03:00N 60°57' E 003°43'4 7.1
2019-Aug-14 02:30N 60°58' E 003°50'3 6.6
2019-Aug-14 02:00N 60°59' E 003°56'3 6.8
2019-Aug-14 01:30N 60°60' E 004°03'3 6.0
2019-Aug-14 01:00N 61°01' E 004°09'3 6.3
2019-Aug-14 00:29N 61°04' E 004°11'3 6.6
2019-Aug-14 00:00N 61°07' E 004°12'3 6.7
2019-Aug-13 23:29N 61°10' E 004°14'3 7.0
2019-Aug-13 23:00N 61°14' E 004°16'3 7.2
2019-Aug-13 22:30N 61°17' E 004°18'3 6.9
2019-Aug-13 22:00N 61°20' E 004°20'3 6.8
2019-Aug-13 21:30N 61°24' E 004°22'3 6.6
2019-Aug-13 21:00N 61°27' E 004°24'3 6.6
2019-Aug-13 20:30N 61°30' E 004°25'3 6.6
2019-Aug-13 20:00N 61°33' E 004°26'3 6.6
2019-Aug-13 19:30N 61°36' E 004°28'3 6.6
2019-Aug-13 19:00N 61°40' E 004°30'3 6.6
2019-Aug-13 18:30N 61°43' E 004°31'3 6.5
2019-Aug-13 18:00N 61°46' E 004°33'3 6.5
2019-Aug-13 17:30N 61°49' E 004°35'3 6.5
2019-Aug-13 17:00N 61°52' E 004°36'3 6.4
2019-Aug-13 16:30N 61°55' E 004°38'3 6.4
2019-Aug-13 16:00N 61°58' E 004°42'3 6.9
2019-Aug-13 15:30N 62°01' E 004°45'3 7.1
2019-Aug-13 15:00N 62°04' E 004°49'4 7.4
2019-Aug-13 14:30N 62°08' E 004°52'4 7.1
2019-Aug-13 13:59N 62°11' E 004°55'3 6.2
2019-Aug-13 13:29N 62°13' E 004°59'3 6.3
2019-Aug-13 13:00N 62°15' E 005°05'3 6.2
2019-Aug-13 12:30N 62°17' E 005°10'3 6.3
2019-Aug-13 12:00N 62°19' E 005°16'3 6.7
2019-Aug-13 11:30N 62°21' E 005°21'3 6.7
2019-Aug-13 11:00N 62°23' E 005°27'3 6.7
2019-Aug-13 10:30N 62°25' E 005°32'3 6.3
2019-Aug-13 09:59N 62°27' E 005°38'3 6.6
2019-Aug-13 09:30N 62°27' E 005°46'3 6.5
2019-Aug-13 09:00N 62°27' E 005°53'3 6.6
2019-Aug-13 08:30N 62°27' E 005°60'3 6.5
2019-Aug-13 07:59N 62°28' E 006°06'1 2.6
2019-Aug-13 07:30N 62°28' E 006°09'0 0.0
2019-Aug-13 06:59N 62°28' E 006°09'0 0.0
2019-Aug-13 06:30N 62°28' E 006°09'0 0.0
2019-Aug-13 06:00N 62°28' E 006°09'0 0.0
2019-Aug-13 05:30N 62°28' E 006°09'0 0.0
2019-Aug-13 04:59N 62°28' E 006°09'0 0.0
2019-Aug-13 04:30N 62°28' E 006°09'0 0.0
2019-Aug-13 04:00N 62°28' E 006°09'0 0.0
2019-Aug-13 03:29N 62°28' E 006°09'0 0.0
2019-Aug-13 03:00N 62°28' E 006°09'0 0.0
2019-Aug-13 02:00N 62°28' E 006°09'0 0.0
2019-Aug-13 01:30N 62°28' E 006°09'0 0.0
2019-Aug-13 01:00N 62°28' E 006°09'0 0.0
2019-Aug-13 00:30N 62°28' E 006°09'0 0.0
2019-Aug-13 00:00N 62°28' E 006°09'0 0.0
2019-Aug-12 23:30N 62°28' E 006°09'0 0.0
2019-Aug-12 23:00N 62°28' E 006°09'0 0.0
2019-Aug-12 22:30N 62°28' E 006°09'0 0.0
2019-Aug-12 22:00N 62°28' E 006°09'0 0.0
2019-Aug-12 21:29N 62°28' E 006°09'0 0.0
2019-Aug-12 21:00N 62°28' E 006°09'0 0.0
2019-Aug-12 20:30N 62°28' E 006°09'0 0.0
2019-Aug-12 20:00N 62°28' E 006°09'0 0.0
2019-Aug-12 19:30N 62°28' E 006°09'0 0.0
2019-Aug-12 19:00N 62°28' E 006°09'0 0.0
2019-Aug-12 18:30N 62°28' E 006°09'0 0.0
2019-Aug-12 18:00N 62°28' E 006°09'0 0.0
2019-Aug-12 17:30N 62°28' E 006°09'0 0.0
2019-Aug-12 17:00N 62°28' E 006°09'0 0.0
2019-Aug-12 16:30N 62°28' E 006°09'0 0.0
2019-Aug-12 16:00N 62°28' E 006°09'0 0.0
2019-Aug-12 15:30N 62°28' E 006°09'0 0.0
2019-Aug-12 15:00N 62°28' E 006°09'0 0.0
2019-Aug-12 14:30N 62°28' E 006°09'0 0.0
2019-Aug-12 14:00N 62°28' E 006°09'0 0.0
2019-Aug-12 13:28N 62°28' E 006°09'0 0.0
2019-Aug-12 13:00N 62°28' E 006°09'0 0.0
2019-Aug-12 12:30N 62°28' E 006°09'0 0.0
2019-Aug-12 12:00N 62°28' E 006°09'0 0.0
2019-Aug-12 11:30N 62°28' E 006°09'0 0.0
2019-Aug-12 11:00N 62°28' E 006°09'0 0.0
2019-Aug-12 10:29N 62°28' E 006°09'0 0.0
2019-Aug-12 10:00N 62°28' E 006°09'1 2.3
2019-Aug-12 09:29N 62°30' E 006°09'2 5.0
2019-Aug-12 09:00N 62°32' E 006°09'3 5.5
2019-Aug-12 08:30N 62°34' E 006°13'3 5.6
2019-Aug-12 08:00N 62°36' E 006°17'3 5.2
2019-Aug-12 07:30N 62°38' E 006°21'3 5.9
2019-Aug-12 07:00N 62°40' E 006°26'3 6.0
2019-Aug-12 06:30N 62°43' E 006°29'3 5.8
2019-Aug-12 06:00N 62°45' E 006°32'3 5.7
2019-Aug-12 05:30N 62°48' E 006°36'3 5.7
2019-Aug-12 05:00N 62°50' E 006°39'3 5.8
2019-Aug-12 04:30N 62°52' E 006°43'3 5.8
2019-Aug-12 04:00N 62°55' E 006°46'3 5.7
2019-Aug-12 03:30N 62°57' E 006°50'3 5.6
2019-Aug-12 03:00N 62°59' E 006°54'3 5.8
2019-Aug-12 02:30N 63°00' E 007°01'3 5.9
2019-Aug-12 01:59N 63°01' E 007°07'3 6.0
2019-Aug-12 01:30N 63°02' E 007°13'3 6.1
2019-Aug-12 01:00N 63°03' E 007°19'3 6.0
2019-Aug-12 00:30N 63°05' E 007°25'3 5.8
2019-Aug-12 00:00N 63°07' E 007°29'3 5.6
2019-Aug-11 23:30N 63°08' E 007°34'3 5.6
2019-Aug-11 23:00N 63°09' E 007°40'3 5.9
2019-Aug-11 22:30N 63°11' E 007°45'3 6.1
2019-Aug-11 22:00N 63°12' E 007°51'3 5.8
2019-Aug-11 21:30N 63°13' E 007°57'3 5.3
2019-Aug-11 21:00N 63°15' E 008°02'3 5.4
2019-Aug-11 20:30N 63°16' E 008°07'3 5.1
2019-Aug-11 20:00N 63°18' E 008°12'3 5.3
2019-Aug-11 19:30N 63°19' E 008°17'3 5.9
2019-Aug-11 19:00N 63°21' E 008°21'3 5.9
2019-Aug-11 18:30N 63°23' E 008°27'3 5.9
2019-Aug-11 18:00N 63°24' E 008°33'3 5.7
2019-Aug-11 17:30N 63°25' E 008°39'3 5.5
2019-Aug-11 17:00N 63°26' E 008°44'3 5.7
2019-Aug-11 16:30N 63°27' E 008°51'3 5.9
2019-Aug-11 15:59N 63°28' E 008°57'3 5.8
2019-Aug-11 15:30N 63°29' E 009°03'2 5.0
2019-Aug-11 15:00N 63°31' E 009°08'2 3.9
2019-Aug-11 14:29N 63°31' E 009°11'2 4.3
2019-Aug-11 14:00N 63°33' E 009°16'2 4.9
2019-Aug-11 13:29N 63°34' E 009°20'2 5.0
2019-Aug-11 13:00N 63°35' E 009°25'3 5.6
2019-Aug-11 12:30N 63°36' E 009°31'3 6.6
2019-Aug-11 12:00N 63°38' E 009°37'3 6.2
2019-Aug-11 11:30N 63°39' E 009°43'2 4.7
2019-Aug-11 11:00N 63°38' E 009°47'3 6.0
2019-Aug-11 10:30N 63°35' E 009°50'3 6.3
2019-Aug-11 10:00N 63°32' E 009°53'  
Track history (hours):
 
Tides and Currents Weather Stations Pressure Air Temp Water Temp Dewpoint Dewpoint Depression Visibility Wind Speed Wind Dir Waves Ship Positions

Eye Of The Wind

Last reported at 2019-Aug-21 10:00 UTC. Time now 2019-Aug-22 08:53 UTC.
Position N 59°34' W 001°54'.

Length 33 m; draft 2.8 m.

Type: Sailing vessel. MMSI: 233789000.

Date/timePositionNaut miles runAvg speedWind from/ knotsBaromVisibWave heightAir tempDewpointWater temp
2019-Aug-21 10:00N 59°34' W 001°54'  
2019-Aug-14 06:46N 60°51' E 002°56'2 6.1
2019-Aug-14 06:25N 60°51' E 002°60'3 6.2
2019-Aug-14 05:59N 60°52' E 003°05'3 6.4
2019-Aug-14 05:29N 60°53' E 003°12'3 6.4
2019-Aug-14 05:00N 60°54' E 003°18'3 6.0
2019-Aug-14 04:30N 60°55' E 003°24'3 6.1
2019-Aug-14 04:00N 60°55' E 003°30'3 6.2
2019-Aug-14 03:30N 60°56' E 003°36'3 6.8
2019-Aug-14 03:00N 60°57' E 003°43'4 7.1
2019-Aug-14 02:30N 60°58' E 003°50'3 6.6
2019-Aug-14 02:00N 60°59' E 003°56'3 6.8
2019-Aug-14 01:30N 60°60' E 004°03'3 6.0
2019-Aug-14 01:00N 61°01' E 004°09'3 6.3
2019-Aug-14 00:29N 61°04' E 004°11'3 6.6
2019-Aug-14 00:00N 61°07' E 004°12'3 6.7
2019-Aug-13 23:29N 61°10' E 004°14'3 7.0
2019-Aug-13 23:00N 61°14' E 004°16'3 7.2
2019-Aug-13 22:30N 61°17' E 004°18'3 6.9
2019-Aug-13 22:00N 61°20' E 004°20'3 6.8
2019-Aug-13 21:30N 61°24' E 004°22'3 6.6
2019-Aug-13 21:00N 61°27' E 004°24'3 6.6
2019-Aug-13 20:30N 61°30' E 004°25'3 6.6
2019-Aug-13 20:00N 61°33' E 004°26'3 6.6
2019-Aug-13 19:30N 61°36' E 004°28'3 6.6
2019-Aug-13 19:00N 61°40' E 004°30'3 6.6
2019-Aug-13 18:30N 61°43' E 004°31'3 6.5
2019-Aug-13 18:00N 61°46' E 004°33'3 6.5
2019-Aug-13 17:30N 61°49' E 004°35'3 6.5
2019-Aug-13 17:00N 61°52' E 004°36'3 6.4
2019-Aug-13 16:30N 61°55' E 004°38'3 6.4
2019-Aug-13 16:00N 61°58' E 004°42'3 6.9
2019-Aug-13 15:30N 62°01' E 004°45'3 7.1
2019-Aug-13 15:00N 62°04' E 004°49'4 7.4
2019-Aug-13 14:30N 62°08' E 004°52'4 7.1
2019-Aug-13 13:59N 62°11' E 004°55'3 6.2
2019-Aug-13 13:29N 62°13' E 004°59'3 6.3
2019-Aug-13 13:00N 62°15' E 005°05'3 6.2
2019-Aug-13 12:30N 62°17' E 005°10'3 6.3
2019-Aug-13 12:00N 62°19' E 005°16'3 6.7
2019-Aug-13 11:30N 62°21' E 005°21'3 6.7
2019-Aug-13 11:00N 62°23' E 005°27'3 6.7
2019-Aug-13 10:30N 62°25' E 005°32'3 6.3
2019-Aug-13 09:59N 62°27' E 005°38'3 6.6
2019-Aug-13 09:30N 62°27' E 005°46'3 6.5
2019-Aug-13 09:00N 62°27' E 005°53'3 6.6
2019-Aug-13 08:30N 62°27' E 005°60'3 6.5
2019-Aug-13 07:59N 62°28' E 006°06'1 2.6
2019-Aug-13 07:30N 62°28' E 006°09'0 0.0
2019-Aug-13 06:59N 62°28' E 006°09'0 0.0
2019-Aug-13 06:30N 62°28' E 006°09'0 0.0
2019-Aug-13 06:00N 62°28' E 006°09'0 0.0
2019-Aug-13 05:30N 62°28' E 006°09'0 0.0
2019-Aug-13 04:59N 62°28' E 006°09'0 0.0
2019-Aug-13 04:30N 62°28' E 006°09'0 0.0
2019-Aug-13 04:00N 62°28' E 006°09'0 0.0
2019-Aug-13 03:29N 62°28' E 006°09'0 0.0
2019-Aug-13 03:00N 62°28' E 006°09'0 0.0
2019-Aug-13 02:00N 62°28' E 006°09'0 0.0
2019-Aug-13 01:30N 62°28' E 006°09'0 0.0
2019-Aug-13 01:00N 62°28' E 006°09'0 0.0
2019-Aug-13 00:30N 62°28' E 006°09'0 0.0
2019-Aug-13 00:00N 62°28' E 006°09'0 0.0
2019-Aug-12 23:30N 62°28' E 006°09'0 0.0
2019-Aug-12 23:00N 62°28' E 006°09'0 0.0
2019-Aug-12 22:30N 62°28' E 006°09'0 0.0
2019-Aug-12 22:00N 62°28' E 006°09'0 0.0
2019-Aug-12 21:29N 62°28' E 006°09'0 0.0
2019-Aug-12 21:00N 62°28' E 006°09'0 0.0
2019-Aug-12 20:30N 62°28' E 006°09'0 0.0
2019-Aug-12 20:00N 62°28' E 006°09'0 0.0
2019-Aug-12 19:30N 62°28' E 006°09'0 0.0
2019-Aug-12 19:00N 62°28' E 006°09'0 0.0
2019-Aug-12 18:30N 62°28' E 006°09'0 0.0
2019-Aug-12 18:00N 62°28' E 006°09'0 0.0
2019-Aug-12 17:30N 62°28' E 006°09'0 0.0
2019-Aug-12 17:00N 62°28' E 006°09'0 0.0
2019-Aug-12 16:30N 62°28' E 006°09'0 0.0
2019-Aug-12 16:00N 62°28' E 006°09'0 0.0
2019-Aug-12 15:30N 62°28' E 006°09'0 0.0
2019-Aug-12 15:00N 62°28' E 006°09'0 0.0
2019-Aug-12 14:30N 62°28' E 006°09'0 0.0
2019-Aug-12 14:00N 62°28' E 006°09'0 0.0
2019-Aug-12 13:28N 62°28' E 006°09'0 0.0
2019-Aug-12 13:00N 62°28' E 006°09'0 0.0
2019-Aug-12 12:30N 62°28' E 006°09'0 0.0
2019-Aug-12 12:00N 62°28' E 006°09'0 0.0
2019-Aug-12 11:30N 62°28' E 006°09'0 0.0
2019-Aug-12 11:00N 62°28' E 006°09'0 0.0
2019-Aug-12 10:29N 62°28' E 006°09'0 0.0
2019-Aug-12 10:00N 62°28' E 006°09'1 2.3
2019-Aug-12 09:29N 62°30' E 006°09'2 5.0
2019-Aug-12 09:00N 62°32' E 006°09'3 5.5
2019-Aug-12 08:30N 62°34' E 006°13'3 5.6
2019-Aug-12 08:00N 62°36' E 006°17'3 5.2
2019-Aug-12 07:30N 62°38' E 006°21'3 5.9
2019-Aug-12 07:00N 62°40' E 006°26'3 6.0
2019-Aug-12 06:30N 62°43' E 006°29'3 5.8
2019-Aug-12 06:00N 62°45' E 006°32'3 5.7
2019-Aug-12 05:30N 62°48' E 006°36'3 5.7
2019-Aug-12 05:00N 62°50' E 006°39'3 5.8
2019-Aug-12 04:30N 62°52' E 006°43'3 5.8
2019-Aug-12 04:00N 62°55' E 006°46'3 5.7
2019-Aug-12 03:30N 62°57' E 006°50'3 5.6
2019-Aug-12 03:00N 62°59' E 006°54'3 5.8
2019-Aug-12 02:30N 63°00' E 007°01'3 5.9
2019-Aug-12 01:59N 63°01' E 007°07'3 6.0
2019-Aug-12 01:30N 63°02' E 007°13'3 6.1
2019-Aug-12 01:00N 63°03' E 007°19'3 6.0
2019-Aug-12 00:30N 63°05' E 007°25'3 5.8
2019-Aug-12 00:00N 63°07' E 007°29'3 5.6
2019-Aug-11 23:30N 63°08' E 007°34'3 5.6
2019-Aug-11 23:00N 63°09' E 007°40'3 5.9
2019-Aug-11 22:30N 63°11' E 007°45'3 6.1
2019-Aug-11 22:00N 63°12' E 007°51'3 5.8
2019-Aug-11 21:30N 63°13' E 007°57'3 5.3
2019-Aug-11 21:00N 63°15' E 008°02'3 5.4
2019-Aug-11 20:30N 63°16' E 008°07'3 5.1
2019-Aug-11 20:00N 63°18' E 008°12'3 5.3
2019-Aug-11 19:30N 63°19' E 008°17'3 5.9
2019-Aug-11 19:00N 63°21' E 008°21'3 5.9
2019-Aug-11 18:30N 63°23' E 008°27'3 5.9
2019-Aug-11 18:00N 63°24' E 008°33'3 5.7
2019-Aug-11 17:30N 63°25' E 008°39'3 5.5
2019-Aug-11 17:00N 63°26' E 008°44'3 5.7
2019-Aug-11 16:30N 63°27' E 008°51'3 5.9
2019-Aug-11 15:59N 63°28' E 008°57'3 5.8
2019-Aug-11 15:30N 63°29' E 009°03'2 5.0
2019-Aug-11 15:00N 63°31' E 009°08'2 3.9
2019-Aug-11 14:29N 63°31' E 009°11'2 4.3
2019-Aug-11 14:00N 63°33' E 009°16'2 4.9
2019-Aug-11 13:29N 63°34' E 009°20'2 5.0
2019-Aug-11 13:00N 63°35' E 009°25'3 5.6
2019-Aug-11 12:30N 63°36' E 009°31'3 6.6
2019-Aug-11 12:00N 63°38' E 009°37'3 6.2
2019-Aug-11 11:30N 63°39' E 009°43'2 4.7
2019-Aug-11 11:00N 63°38' E 009°47'3 6.0
2019-Aug-11 10:30N 63°35' E 009°50'3 6.3
2019-Aug-11 10:00N 63°32' E 009°53'  

Dump ship's entire track history